sensor_id;sensor_type;location;lat;lon;timestamp;P1;durP1;ratioP1;P2;durP2;ratioP2
66189;SDS011;52992;52.084;5.412;2023-10-08T00:01:09;11.03;;;4.57;;
66189;SDS011;52992;52.084;5.412;2023-10-08T00:03:44;9.20;;;4.60;;
66189;SDS011;52992;52.084;5.412;2023-10-08T00:06:17;11.33;;;4.50;;
66189;SDS011;52992;52.084;5.412;2023-10-08T00:08:46;12.80;;;4.73;;
66189;SDS011;52992;52.084;5.412;2023-10-08T00:11:13;15.53;;;4.33;;
66189;SDS011;52992;52.084;5.412;2023-10-08T00:13:42;10.93;;;4.33;;
66189;SDS011;52992;52.084;5.412;2023-10-08T00:16:10;15.00;;;5.83;;
66189;SDS011;52992;52.084;5.412;2023-10-08T00:18:43;12.47;;;4.80;;
66189;SDS011;52992;52.084;5.412;2023-10-08T00:21:18;17.77;;;5.27;;
66189;SDS011;52992;52.084;5.412;2023-10-08T00:23:52;10.63;;;4.30;;
66189;SDS011;52992;52.084;5.412;2023-10-08T00:26:27;15.90;;;4.83;;
66189;SDS011;52992;52.084;5.412;2023-10-08T00:29:02;6.93;;;4.33;;
66189;SDS011;52992;52.084;5.412;2023-10-08T00:31:33;12.90;;;4.40;;
66189;SDS011;52992;52.084;5.412;2023-10-08T00:34:07;12.73;;;3.70;;
66189;SDS011;52992;52.084;5.412;2023-10-08T00:36:38;14.60;;;4.80;;
66189;SDS011;52992;52.084;5.412;2023-10-08T00:39:08;13.30;;;4.77;;
66189;SDS011;52992;52.084;5.412;2023-10-08T00:41:41;14.73;;;4.70;;
66189;SDS011;52992;52.084;5.412;2023-10-08T00:44:10;10.40;;;4.60;;
66189;SDS011;52992;52.084;5.412;2023-10-08T00:47:05;13.87;;;4.40;;
66189;SDS011;52992;52.084;5.412;2023-10-08T00:49:33;11.23;;;4.80;;
66189;SDS011;52992;52.084;5.412;2023-10-08T00:52:08;13.73;;;4.93;;
66189;SDS011;52992;52.084;5.412;2023-10-08T00:54:36;11.23;;;5.23;;
66189;SDS011;52992;52.084;5.412;2023-10-08T00:57:28;12.07;;;5.10;;
66189;SDS011;52992;52.084;5.412;2023-10-08T00:59:56;12.47;;;4.93;;
66189;SDS011;52992;52.084;5.412;2023-10-08T01:02:29;16.43;;;5.90;;
66189;SDS011;52992;52.084;5.412;2023-10-08T01:05:23;13.97;;;5.27;;
66189;SDS011;52992;52.084;5.412;2023-10-08T01:07:52;14.30;;;4.73;;
66189;SDS011;52992;52.084;5.412;2023-10-08T01:10:22;10.70;;;4.40;;
66189;SDS011;52992;52.084;5.412;2023-10-08T01:12:51;12.77;;;4.63;;
66189;SDS011;52992;52.084;5.412;2023-10-08T01:15:41;11.27;;;4.47;;
66189;SDS011;52992;52.084;5.412;2023-10-08T01:18:11;15.93;;;4.97;;
66189;SDS011;52992;52.084;5.412;2023-10-08T01:20:42;18.90;;;4.97;;
66189;SDS011;52992;52.084;5.412;2023-10-08T01:23:12;13.27;;;4.83;;
66189;SDS011;52992;52.084;5.412;2023-10-08T01:25:49;12.17;;;5.13;;
66189;SDS011;52992;52.084;5.412;2023-10-08T01:28:35;15.80;;;5.40;;
66189;SDS011;52992;52.084;5.412;2023-10-08T01:31:02;10.23;;;4.20;;
66189;SDS011;52992;52.084;5.412;2023-10-08T01:33:31;12.27;;;4.90;;
66189;SDS011;52992;52.084;5.412;2023-10-08T01:35:58;12.67;;;4.67;;
66189;SDS011;52992;52.084;5.412;2023-10-08T01:38:30;15.70;;;4.83;;
66189;SDS011;52992;52.084;5.412;2023-10-08T01:40:59;12.53;;;4.47;;
66189;SDS011;52992;52.084;5.412;2023-10-08T01:43:31;19.17;;;6.37;;
66189;SDS011;52992;52.084;5.412;2023-10-08T01:45:58;11.63;;;4.70;;
66189;SDS011;52992;52.084;5.412;2023-10-08T01:48:28;11.77;;;5.13;;
66189;SDS011;52992;52.084;5.412;2023-10-08T01:51:03;14.50;;;4.87;;
66189;SDS011;52992;52.084;5.412;2023-10-08T01:53:35;15.70;;;4.93;;
66189;SDS011;52992;52.084;5.412;2023-10-08T01:56:03;15.53;;;5.27;;
66189;SDS011;52992;52.084;5.412;2023-10-08T01:58:30;12.33;;;4.33;;
66189;SDS011;52992;52.084;5.412;2023-10-08T02:01:00;15.23;;;5.67;;
66189;SDS011;52992;52.084;5.412;2023-10-08T02:03:26;19.10;;;5.40;;
66189;SDS011;52992;52.084;5.412;2023-10-08T02:05:54;16.17;;;4.93;;
66189;SDS011;52992;52.084;5.412;2023-10-08T02:08:25;12.87;;;4.43;;
66189;SDS011;52992;52.084;5.412;2023-10-08T02:10:53;18.17;;;5.40;;
66189;SDS011;52992;52.084;5.412;2023-10-08T02:13:19;9.77;;;4.87;;
66189;SDS011;52992;52.084;5.412;2023-10-08T02:15:48;10.87;;;4.87;;
66189;SDS011;52992;52.084;5.412;2023-10-08T02:18:18;13.63;;;5.40;;
66189;SDS011;52992;52.084;5.412;2023-10-08T02:20:46;11.53;;;5.03;;
66189;SDS011;52992;52.084;5.412;2023-10-08T02:23:15;12.37;;;6.00;;
66189;SDS011;52992;52.084;5.412;2023-10-08T02:25:42;11.40;;;5.27;;
66189;SDS011;52992;52.084;5.412;2023-10-08T02:28:09;10.73;;;4.63;;
66189;SDS011;52992;52.084;5.412;2023-10-08T02:30:39;18.00;;;5.17;;
66189;SDS011;52992;52.084;5.412;2023-10-08T02:33:06;12.40;;;5.10;;
66189;SDS011;52992;52.084;5.412;2023-10-08T02:35:41;11.53;;;4.67;;
66189;SDS011;52992;52.084;5.412;2023-10-08T02:38:10;16.80;;;5.50;;
66189;SDS011;52992;52.084;5.412;2023-10-08T02:40:39;14.83;;;5.27;;
66189;SDS011;52992;52.084;5.412;2023-10-08T02:43:15;12.77;;;4.87;;
66189;SDS011;52992;52.084;5.412;2023-10-08T02:45:43;15.57;;;5.37;;
66189;SDS011;52992;52.084;5.412;2023-10-08T02:48:21;17.77;;;5.00;;
66189;SDS011;52992;52.084;5.412;2023-10-08T02:50:49;11.23;;;4.90;;
66189;SDS011;52992;52.084;5.412;2023-10-08T02:53:19;14.73;;;5.57;;
66189;SDS011;52992;52.084;5.412;2023-10-08T02:55:50;14.00;;;5.50;;
66189;SDS011;52992;52.084;5.412;2023-10-08T02:58:17;14.87;;;5.77;;
66189;SDS011;52992;52.084;5.412;2023-10-08T03:00:46;13.37;;;5.47;;
66189;SDS011;52992;52.084;5.412;2023-10-08T03:03:15;11.87;;;5.17;;
66189;SDS011;52992;52.084;5.412;2023-10-08T03:05:45;15.53;;;5.77;;
66189;SDS011;52992;52.084;5.412;2023-10-08T03:08:13;12.77;;;4.93;;
66189;SDS011;52992;52.084;5.412;2023-10-08T03:10:47;14.80;;;5.23;;
66189;SDS011;52992;52.084;5.412;2023-10-08T03:13:15;15.07;;;5.67;;
66189;SDS011;52992;52.084;5.412;2023-10-08T03:15:43;15.97;;;5.63;;
66189;SDS011;52992;52.084;5.412;2023-10-08T03:18:24;13.33;;;5.63;;
66189;SDS011;52992;52.084;5.412;2023-10-08T03:20:51;16.53;;;5.40;;
66189;SDS011;52992;52.084;5.412;2023-10-08T03:23:19;8.50;;;4.60;;
66189;SDS011;52992;52.084;5.412;2023-10-08T03:25:53;15.23;;;5.73;;
66189;SDS011;52992;52.084;5.412;2023-10-08T03:28:37;9.53;;;4.77;;
66189;SDS011;52992;52.084;5.412;2023-10-08T03:31:08;15.40;;;5.30;;
66189;SDS011;52992;52.084;5.412;2023-10-08T03:33:45;10.23;;;4.83;;
66189;SDS011;52992;52.084;5.412;2023-10-08T03:36:18;11.90;;;5.50;;
66189;SDS011;52992;52.084;5.412;2023-10-08T03:38:48;11.37;;;4.70;;
66189;SDS011;52992;52.084;5.412;2023-10-08T03:41:22;15.13;;;5.37;;
66189;SDS011;52992;52.084;5.412;2023-10-08T03:43:56;11.80;;;5.83;;
66189;SDS011;52992;52.084;5.412;2023-10-08T03:46:33;14.73;;;5.40;;
66189;SDS011;52992;52.084;5.412;2023-10-08T03:49:09;16.70;;;5.13;;
66189;SDS011;52992;52.084;5.412;2023-10-08T03:51:49;13.53;;;5.20;;
66189;SDS011;52992;52.084;5.412;2023-10-08T03:54:20;16.37;;;5.27;;
66189;SDS011;52992;52.084;5.412;2023-10-08T03:57:00;12.10;;;5.67;;
66189;SDS011;52992;52.084;5.412;2023-10-08T03:59:27;17.47;;;5.87;;
66189;SDS011;52992;52.084;5.412;2023-10-08T04:02:07;12.30;;;5.07;;
66189;SDS011;52992;52.084;5.412;2023-10-08T04:04:54;10.60;;;4.90;;
66189;SDS011;52992;52.084;5.412;2023-10-08T04:07:24;9.40;;;5.07;;
66189;SDS011;52992;52.084;5.412;2023-10-08T04:09:57;13.73;;;5.37;;
66189;SDS011;52992;52.084;5.412;2023-10-08T04:12:37;15.80;;;6.13;;
66189;SDS011;52992;52.084;5.412;2023-10-08T04:15:11;16.13;;;5.70;;
66189;SDS011;52992;52.084;5.412;2023-10-08T04:17:43;14.87;;;5.70;;
66189;SDS011;52992;52.084;5.412;2023-10-08T04:20:11;13.07;;;5.37;;
66189;SDS011;52992;52.084;5.412;2023-10-08T04:23:01;18.67;;;7.07;;
66189;SDS011;52992;52.084;5.412;2023-10-08T04:25:31;14.87;;;6.27;;
66189;SDS011;52992;52.084;5.412;2023-10-08T04:27:59;19.30;;;7.00;;
66189;SDS011;52992;52.084;5.412;2023-10-08T04:30:33;20.37;;;7.70;;
66189;SDS011;52992;52.084;5.412;2023-10-08T04:33:00;16.97;;;6.70;;
66189;SDS011;52992;52.084;5.412;2023-10-08T04:35:34;18.90;;;6.80;;
66189;SDS011;52992;52.084;5.412;2023-10-08T04:38:19;16.07;;;6.47;;
66189;SDS011;52992;52.084;5.412;2023-10-08T04:40:52;14.27;;;5.77;;
66189;SDS011;52992;52.084;5.412;2023-10-08T04:43:20;14.63;;;5.90;;
66189;SDS011;52992;52.084;5.412;2023-10-08T04:45:58;14.00;;;5.30;;
66189;SDS011;52992;52.084;5.412;2023-10-08T04:48:26;16.20;;;5.00;;
66189;SDS011;52992;52.084;5.412;2023-10-08T04:50:59;17.07;;;4.70;;
66189;SDS011;52992;52.084;5.412;2023-10-08T04:53:28;15.30;;;5.50;;
66189;SDS011;52992;52.084;5.412;2023-10-08T04:56:04;10.00;;;4.80;;
66189;SDS011;52992;52.084;5.412;2023-10-08T04:58:33;13.80;;;5.30;;
66189;SDS011;52992;52.084;5.412;2023-10-08T05:01:04;15.97;;;5.20;;
66189;SDS011;52992;52.084;5.412;2023-10-08T05:03:51;14.43;;;4.90;;
66189;SDS011;52992;52.084;5.412;2023-10-08T05:06:29;14.23;;;4.83;;
66189;SDS011;52992;52.084;5.412;2023-10-08T05:09:00;10.77;;;4.70;;
66189;SDS011;52992;52.084;5.412;2023-10-08T05:11:39;13.57;;;5.07;;
66189;SDS011;52992;52.084;5.412;2023-10-08T05:14:32;9.10;;;4.60;;
66189;SDS011;52992;52.084;5.412;2023-10-08T05:17:00;9.97;;;4.43;;
66189;SDS011;52992;52.084;5.412;2023-10-08T05:19:37;16.20;;;4.43;;
66189;SDS011;52992;52.084;5.412;2023-10-08T05:22:05;11.97;;;4.97;;
66189;SDS011;52992;52.084;5.412;2023-10-08T05:24:48;11.40;;;5.20;;
66189;SDS011;52992;52.084;5.412;2023-10-08T05:27:37;12.87;;;4.67;;
66189;SDS011;52992;52.084;5.412;2023-10-08T05:30:22;9.67;;;4.40;;
66189;SDS011;52992;52.084;5.412;2023-10-08T05:33:05;12.47;;;4.57;;
66189;SDS011;52992;52.084;5.412;2023-10-08T05:35:35;11.63;;;4.53;;
66189;SDS011;52992;52.084;5.412;2023-10-08T05:38:10;13.47;;;5.50;;
66189;SDS011;52992;52.084;5.412;2023-10-08T05:41:04;15.03;;;5.43;;
66189;SDS011;52992;52.084;5.412;2023-10-08T05:43:32;12.63;;;5.33;;
66189;SDS011;52992;52.084;5.412;2023-10-08T05:46:04;13.63;;;5.17;;
66189;SDS011;52992;52.084;5.412;2023-10-08T05:48:52;10.53;;;4.27;;
66189;SDS011;52992;52.084;5.412;2023-10-08T05:51:33;13.40;;;4.37;;
66189;SDS011;52992;52.084;5.412;2023-10-08T05:56:57;9.20;;;3.93;;
66189;SDS011;52992;52.084;5.412;2023-10-08T05:59:41;8.27;;;3.40;;
66189;SDS011;52992;52.084;5.412;2023-10-08T06:02:19;6.27;;;3.30;;
66189;SDS011;52992;52.084;5.412;2023-10-08T06:05:02;10.90;;;3.43;;
66189;SDS011;52992;52.084;5.412;2023-10-08T06:10:15;7.47;;;2.63;;
66189;SDS011;52992;52.084;5.412;2023-10-08T06:13:09;6.37;;;3.00;;
66189;SDS011;52992;52.084;5.412;2023-10-08T06:15:56;3.73;;;2.37;;
66189;SDS011;52992;52.084;5.412;2023-10-08T06:18:29;8.07;;;2.87;;
66189;SDS011;52992;52.084;5.412;2023-10-08T06:21:02;9.37;;;2.70;;
66189;SDS011;52992;52.084;5.412;2023-10-08T06:23:39;5.97;;;2.63;;
66189;SDS011;52992;52.084;5.412;2023-10-08T06:26:08;5.07;;;2.83;;
66189;SDS011;52992;52.084;5.412;2023-10-08T06:28:36;7.50;;;2.60;;
66189;SDS011;52992;52.084;5.412;2023-10-08T06:31:05;7.67;;;2.73;;
66189;SDS011;52992;52.084;5.412;2023-10-08T06:33:39;4.53;;;2.43;;
66189;SDS011;52992;52.084;5.412;2023-10-08T06:36:08;3.97;;;2.50;;
66189;SDS011;52992;52.084;5.412;2023-10-08T06:38:42;9.90;;;2.53;;
66189;SDS011;52992;52.084;5.412;2023-10-08T06:41:11;7.47;;;2.10;;
66189;SDS011;52992;52.084;5.412;2023-10-08T06:44:04;8.50;;;2.67;;
66189;SDS011;52992;52.084;5.412;2023-10-08T06:46:41;6.00;;;1.97;;
66189;SDS011;52992;52.084;5.412;2023-10-08T06:49:08;5.27;;;2.50;;
66189;SDS011;52992;52.084;5.412;2023-10-08T06:51:39;4.40;;;2.43;;
66189;SDS011;52992;52.084;5.412;2023-10-08T06:54:10;8.53;;;2.50;;
66189;SDS011;52992;52.084;5.412;2023-10-08T06:56:41;7.33;;;2.40;;
66189;SDS011;52992;52.084;5.412;2023-10-08T06:59:13;7.37;;;2.60;;
66189;SDS011;52992;52.084;5.412;2023-10-08T07:01:40;7.83;;;2.67;;
66189;SDS011;52992;52.084;5.412;2023-10-08T07:04:12;5.80;;;2.70;;
66189;SDS011;52992;52.084;5.412;2023-10-08T07:06:41;4.73;;;2.00;;
66189;SDS011;52992;52.084;5.412;2023-10-08T07:09:10;4.67;;;2.30;;
66189;SDS011;52992;52.084;5.412;2023-10-08T07:11:56;4.53;;;2.03;;
66189;SDS011;52992;52.084;5.412;2023-10-08T07:14:24;5.00;;;2.33;;
66189;SDS011;52992;52.084;5.412;2023-10-08T07:16:56;4.23;;;2.53;;
66189;SDS011;52992;52.084;5.412;2023-10-08T07:19:26;4.80;;;2.63;;
66189;SDS011;52992;52.084;5.412;2023-10-08T07:22:05;6.93;;;2.87;;
66189;SDS011;52992;52.084;5.412;2023-10-08T07:24:45;4.50;;;2.50;;
66189;SDS011;52992;52.084;5.412;2023-10-08T07:27:17;6.37;;;2.73;;
66189;SDS011;52992;52.084;5.412;2023-10-08T07:29:56;4.27;;;2.73;;
66189;SDS011;52992;52.084;5.412;2023-10-08T07:32:27;3.77;;;2.60;;
66189;SDS011;52992;52.084;5.412;2023-10-08T07:34:57;3.97;;;2.77;;
66189;SDS011;52992;52.084;5.412;2023-10-08T07:37:40;7.70;;;3.20;;
66189;SDS011;52992;52.084;5.412;2023-10-08T07:40:09;3.73;;;2.80;;
66189;SDS011;52992;52.084;5.412;2023-10-08T07:42:38;5.03;;;2.70;;
66189;SDS011;52992;52.084;5.412;2023-10-08T07:45:05;4.30;;;3.00;;
66189;SDS011;52992;52.084;5.412;2023-10-08T07:47:33;5.87;;;3.17;;
66189;SDS011;52992;52.084;5.412;2023-10-08T07:50:00;5.90;;;3.00;;
66189;SDS011;52992;52.084;5.412;2023-10-08T07:52:27;4.10;;;2.80;;
66189;SDS011;52992;52.084;5.412;2023-10-08T07:54:55;4.80;;;3.03;;
66189;SDS011;52992;52.084;5.412;2023-10-08T07:57:22;6.93;;;3.00;;
66189;SDS011;52992;52.084;5.412;2023-10-08T07:59:57;3.93;;;2.90;;
66189;SDS011;52992;52.084;5.412;2023-10-08T08:02:53;5.27;;;2.73;;
66189;SDS011;52992;52.084;5.412;2023-10-08T08:05:21;3.70;;;2.77;;
66189;SDS011;52992;52.084;5.412;2023-10-08T08:07:49;5.33;;;2.80;;
66189;SDS011;52992;52.084;5.412;2023-10-08T08:10:16;5.17;;;2.77;;
66189;SDS011;52992;52.084;5.412;2023-10-08T08:12:44;5.17;;;3.17;;
66189;SDS011;52992;52.084;5.412;2023-10-08T08:15:12;3.77;;;2.60;;
66189;SDS011;52992;52.084;5.412;2023-10-08T08:17:42;5.57;;;2.83;;
66189;SDS011;52992;52.084;5.412;2023-10-08T08:20:10;4.40;;;2.93;;
66189;SDS011;52992;52.084;5.412;2023-10-08T08:22:44;4.03;;;2.80;;
66189;SDS011;52992;52.084;5.412;2023-10-08T08:25:38;7.43;;;2.93;;
66189;SDS011;52992;52.084;5.412;2023-10-08T08:28:24;5.17;;;2.80;;
66189;SDS011;52992;52.084;5.412;2023-10-08T08:30:51;4.23;;;3.00;;
66189;SDS011;52992;52.084;5.412;2023-10-08T08:33:21;4.60;;;2.53;;
66189;SDS011;52992;52.084;5.412;2023-10-08T08:35:59;4.50;;;2.60;;
66189;SDS011;52992;52.084;5.412;2023-10-08T08:38:27;4.63;;;2.87;;
66189;SDS011;52992;52.084;5.412;2023-10-08T08:41:03;3.43;;;2.60;;
66189;SDS011;52992;52.084;5.412;2023-10-08T08:43:36;3.50;;;2.60;;
66189;SDS011;52992;52.084;5.412;2023-10-08T08:46:03;4.93;;;2.83;;
66189;SDS011;52992;52.084;5.412;2023-10-08T08:48:34;5.00;;;2.57;;
66189;SDS011;52992;52.084;5.412;2023-10-08T08:51:02;6.10;;;2.70;;
66189;SDS011;52992;52.084;5.412;2023-10-08T08:53:29;5.30;;;2.80;;
66189;SDS011;52992;52.084;5.412;2023-10-08T08:55:56;3.13;;;2.43;;
66189;SDS011;52992;52.084;5.412;2023-10-08T08:58:24;4.57;;;2.70;;
66189;SDS011;52992;52.084;5.412;2023-10-08T09:00:52;3.63;;;2.80;;
66189;SDS011;52992;52.084;5.412;2023-10-08T09:03:19;5.83;;;2.50;;
66189;SDS011;52992;52.084;5.412;2023-10-08T09:05:47;3.97;;;2.90;;
66189;SDS011;52992;52.084;5.412;2023-10-08T09:08:17;4.40;;;2.30;;
66189;SDS011;52992;52.084;5.412;2023-10-08T09:10:45;4.27;;;2.63;;
66189;SDS011;52992;52.084;5.412;2023-10-08T09:13:19;3.30;;;2.50;;
66189;SDS011;52992;52.084;5.412;2023-10-08T09:15:50;4.43;;;2.63;;
66189;SDS011;52992;52.084;5.412;2023-10-08T09:18:22;4.33;;;2.10;;
66189;SDS011;52992;52.084;5.412;2023-10-08T09:20:50;4.07;;;2.47;;
66189;SDS011;52992;52.084;5.412;2023-10-08T09:23:17;3.17;;;2.00;;
66189;SDS011;52992;52.084;5.412;2023-10-08T09:25:44;3.47;;;2.50;;
66189;SDS011;52992;52.084;5.412;2023-10-08T09:28:30;3.20;;;2.30;;
66189;SDS011;52992;52.084;5.412;2023-10-08T09:30:58;2.67;;;2.30;;
66189;SDS011;52992;52.084;5.412;2023-10-08T09:33:26;3.10;;;2.50;;
66189;SDS011;52992;52.084;5.412;2023-10-08T09:35:55;4.60;;;2.60;;
66189;SDS011;52992;52.084;5.412;2023-10-08T09:38:23;3.10;;;2.50;;
66189;SDS011;52992;52.084;5.412;2023-10-08T09:40:52;3.20;;;2.70;;
66189;SDS011;52992;52.084;5.412;2023-10-08T09:43:19;3.97;;;2.80;;
66189;SDS011;52992;52.084;5.412;2023-10-08T09:45:52;4.47;;;2.80;;
66189;SDS011;52992;52.084;5.412;2023-10-08T09:48:24;4.40;;;3.00;;
66189;SDS011;52992;52.084;5.412;2023-10-08T09:50:53;5.17;;;3.73;;
66189;SDS011;52992;52.084;5.412;2023-10-08T09:53:32;4.00;;;2.87;;
66189;SDS011;52992;52.084;5.412;2023-10-08T09:56:21;5.30;;;3.10;;
66189;SDS011;52992;52.084;5.412;2023-10-08T09:58:50;3.93;;;3.17;;
66189;SDS011;52992;52.084;5.412;2023-10-08T10:01:18;4.33;;;3.30;;
66189;SDS011;52992;52.084;5.412;2023-10-08T10:03:46;4.73;;;3.70;;
66189;SDS011;52992;52.084;5.412;2023-10-08T10:06:17;6.23;;;3.60;;
66189;SDS011;52992;52.084;5.412;2023-10-08T10:08:45;5.40;;;3.70;;
66189;SDS011;52992;52.084;5.412;2023-10-08T10:11:14;5.57;;;3.60;;
66189;SDS011;52992;52.084;5.412;2023-10-08T10:13:42;7.13;;;4.50;;
66189;SDS011;52992;52.084;5.412;2023-10-08T10:16:20;5.53;;;3.60;;
66189;SDS011;52992;52.084;5.412;2023-10-08T10:18:54;5.70;;;4.10;;
66189;SDS011;52992;52.084;5.412;2023-10-08T10:21:27;5.77;;;4.17;;
66189;SDS011;52992;52.084;5.412;2023-10-08T10:23:59;6.87;;;4.20;;
66189;SDS011;52992;52.084;5.412;2023-10-08T10:31:37;6.73;;;4.10;;
66189;SDS011;52992;52.084;5.412;2023-10-08T10:34:05;7.80;;;4.07;;
66189;SDS011;52992;52.084;5.412;2023-10-08T10:36:36;7.17;;;4.67;;
66189;SDS011;52992;52.084;5.412;2023-10-08T10:39:06;7.13;;;4.67;;
66189;SDS011;52992;52.084;5.412;2023-10-08T10:41:43;6.77;;;4.83;;
66189;SDS011;52992;52.084;5.412;2023-10-08T10:44:14;12.60;;;4.80;;
66189;SDS011;52992;52.084;5.412;2023-10-08T10:46:42;7.27;;;4.90;;
66189;SDS011;52992;52.084;5.412;2023-10-08T10:49:20;6.87;;;4.90;;
66189;SDS011;52992;52.084;5.412;2023-10-08T10:51:58;5.93;;;4.60;;
66189;SDS011;52992;52.084;5.412;2023-10-08T10:54:25;10.30;;;5.53;;
66189;SDS011;52992;52.084;5.412;2023-10-08T10:56:53;5.57;;;4.60;;
66189;SDS011;52992;52.084;5.412;2023-10-08T10:59:40;7.03;;;4.03;;
66189;SDS011;52992;52.084;5.412;2023-10-08T11:02:18;6.57;;;4.60;;
66189;SDS011;52992;52.084;5.412;2023-10-08T11:04:57;8.50;;;4.60;;
66189;SDS011;52992;52.084;5.412;2023-10-08T11:07:46;7.87;;;4.63;;
66189;SDS011;52992;52.084;5.412;2023-10-08T11:10:14;7.37;;;5.07;;
66189;SDS011;52992;52.084;5.412;2023-10-08T11:12:42;8.37;;;4.83;;
66189;SDS011;52992;52.084;5.412;2023-10-08T11:15:13;7.93;;;4.50;;
66189;SDS011;52992;52.084;5.412;2023-10-08T11:17:44;11.87;;;4.97;;
66189;SDS011;52992;52.084;5.412;2023-10-08T11:20:23;7.10;;;4.60;;
66189;SDS011;52992;52.084;5.412;2023-10-08T11:22:52;8.17;;;4.83;;
66189;SDS011;52992;52.084;5.412;2023-10-08T11:25:23;6.73;;;4.73;;
66189;SDS011;52992;52.084;5.412;2023-10-08T11:27:57;5.77;;;4.33;;
66189;SDS011;52992;52.084;5.412;2023-10-08T11:30:28;5.77;;;3.93;;
66189;SDS011;52992;52.084;5.412;2023-10-08T11:33:01;5.73;;;3.77;;
66189;SDS011;52992;52.084;5.412;2023-10-08T11:35:28;7.20;;;3.80;;
66189;SDS011;52992;52.084;5.412;2023-10-08T11:37:58;5.50;;;3.40;;
66189;SDS011;52992;52.084;5.412;2023-10-08T11:40:27;8.43;;;3.63;;
66189;SDS011;52992;52.084;5.412;2023-10-08T11:42:56;7.23;;;4.10;;
66189;SDS011;52992;52.084;5.412;2023-10-08T11:45:29;4.83;;;3.43;;
66189;SDS011;52992;52.084;5.412;2023-10-08T11:48:05;6.47;;;3.60;;
66189;SDS011;52992;52.084;5.412;2023-10-08T11:50:39;4.83;;;3.30;;
66189;SDS011;52992;52.084;5.412;2023-10-08T11:53:07;4.93;;;2.90;;
66189;SDS011;52992;52.084;5.412;2023-10-08T11:55:35;7.33;;;3.10;;
66189;SDS011;52992;52.084;5.412;2023-10-08T11:58:05;4.47;;;2.50;;
66189;SDS011;52992;52.084;5.412;2023-10-08T12:00:44;5.37;;;2.80;;
66189;SDS011;52992;52.084;5.412;2023-10-08T12:03:13;4.90;;;2.73;;
66189;SDS011;52992;52.084;5.412;2023-10-08T12:05:49;5.80;;;2.40;;
66189;SDS011;52992;52.084;5.412;2023-10-08T12:08:25;3.97;;;2.50;;
66189;SDS011;52992;52.084;5.412;2023-10-08T12:10:54;6.83;;;2.90;;
66189;SDS011;52992;52.084;5.412;2023-10-08T12:13:21;6.23;;;2.60;;
66189;SDS011;52992;52.084;5.412;2023-10-08T12:15:53;4.33;;;2.57;;
66189;SDS011;52992;52.084;5.412;2023-10-08T12:18:33;6.27;;;2.83;;
66189;SDS011;52992;52.084;5.412;2023-10-08T12:21:07;3.50;;;2.43;;
66189;SDS011;52992;52.084;5.412;2023-10-08T12:23:37;5.00;;;2.50;;
66189;SDS011;52992;52.084;5.412;2023-10-08T12:26:04;5.03;;;2.43;;
66189;SDS011;52992;52.084;5.412;2023-10-08T12:28:35;4.83;;;2.60;;
66189;SDS011;52992;52.084;5.412;2023-10-08T12:31:03;2.83;;;2.53;;
66189;SDS011;52992;52.084;5.412;2023-10-08T12:33:30;2.97;;;2.17;;
66189;SDS011;52992;52.084;5.412;2023-10-08T12:35:58;4.83;;;2.47;;
66189;SDS011;52992;52.084;5.412;2023-10-08T12:38:40;3.23;;;1.73;;
66189;SDS011;52992;52.084;5.412;2023-10-08T12:41:11;3.83;;;2.23;;
66189;SDS011;52992;52.084;5.412;2023-10-08T12:43:42;3.70;;;2.30;;
66189;SDS011;52992;52.084;5.412;2023-10-08T12:46:12;6.23;;;2.10;;
66189;SDS011;52992;52.084;5.412;2023-10-08T12:48:45;4.53;;;2.20;;
66189;SDS011;52992;52.084;5.412;2023-10-08T12:51:19;3.23;;;1.87;;
66189;SDS011;52992;52.084;5.412;2023-10-08T12:53:51;4.23;;;2.10;;
66189;SDS011;52992;52.084;5.412;2023-10-08T12:56:26;5.60;;;2.90;;
66189;SDS011;52992;52.084;5.412;2023-10-08T12:59:02;3.90;;;2.20;;
66189;SDS011;52992;52.084;5.412;2023-10-08T13:01:33;2.27;;;1.87;;
66189;SDS011;52992;52.084;5.412;2023-10-08T13:04:02;5.80;;;2.67;;
66189;SDS011;52992;52.084;5.412;2023-10-08T13:06:34;4.57;;;2.27;;
66189;SDS011;52992;52.084;5.412;2023-10-08T13:09:04;4.57;;;2.30;;
66189;SDS011;52992;52.084;5.412;2023-10-08T13:11:39;2.53;;;1.83;;
66189;SDS011;52992;52.084;5.412;2023-10-08T13:14:06;4.40;;;2.30;;
66189;SDS011;52992;52.084;5.412;2023-10-08T13:16:33;4.13;;;2.00;;
66189;SDS011;52992;52.084;5.412;2023-10-08T13:19:04;5.87;;;2.20;;
66189;SDS011;52992;52.084;5.412;2023-10-08T13:21:34;4.60;;;2.40;;
66189;SDS011;52992;52.084;5.412;2023-10-08T13:24:04;4.63;;;2.20;;
66189;SDS011;52992;52.084;5.412;2023-10-08T13:26:36;5.87;;;2.40;;
66189;SDS011;52992;52.084;5.412;2023-10-08T13:29:05;4.80;;;2.60;;
66189;SDS011;52992;52.084;5.412;2023-10-08T13:31:36;4.63;;;2.47;;
66189;SDS011;52992;52.084;5.412;2023-10-08T13:34:03;12.60;;;2.80;;
66189;SDS011;52992;52.084;5.412;2023-10-08T13:36:36;6.17;;;2.23;;
66189;SDS011;52992;52.084;5.412;2023-10-08T13:39:05;3.67;;;2.50;;
66189;SDS011;52992;52.084;5.412;2023-10-08T13:41:36;4.67;;;2.20;;
66189;SDS011;52992;52.084;5.412;2023-10-08T13:44:08;4.40;;;2.40;;
66189;SDS011;52992;52.084;5.412;2023-10-08T13:46:35;5.67;;;2.50;;
66189;SDS011;52992;52.084;5.412;2023-10-08T13:49:03;5.67;;;2.27;;
66189;SDS011;52992;52.084;5.412;2023-10-08T13:51:32;3.27;;;2.40;;
66189;SDS011;52992;52.084;5.412;2023-10-08T13:54:01;2.53;;;2.07;;
66189;SDS011;52992;52.084;5.412;2023-10-08T13:56:36;4.23;;;2.43;;
66189;SDS011;52992;52.084;5.412;2023-10-08T13:59:14;4.93;;;2.40;;
66189;SDS011;52992;52.084;5.412;2023-10-08T14:01:43;5.87;;;2.37;;
66189;SDS011;52992;52.084;5.412;2023-10-08T14:04:19;3.97;;;2.40;;
66189;SDS011;52992;52.084;5.412;2023-10-08T14:06:47;3.90;;;2.53;;
66189;SDS011;52992;52.084;5.412;2023-10-08T14:09:19;5.93;;;3.03;;
66189;SDS011;52992;52.084;5.412;2023-10-08T14:11:48;2.30;;;2.03;;
66189;SDS011;52992;52.084;5.412;2023-10-08T14:14:19;4.07;;;2.17;;
66189;SDS011;52992;52.084;5.412;2023-10-08T14:16:51;4.57;;;2.30;;
66189;SDS011;52992;52.084;5.412;2023-10-08T14:19:26;2.57;;;2.30;;
66189;SDS011;52992;52.084;5.412;2023-10-08T14:22:05;6.27;;;2.23;;
66189;SDS011;52992;52.084;5.412;2023-10-08T14:24:35;4.80;;;2.20;;
66189;SDS011;52992;52.084;5.412;2023-10-08T14:27:04;3.60;;;2.33;;
66189;SDS011;52992;52.084;5.412;2023-10-08T14:29:38;4.50;;;2.30;;
66189;SDS011;52992;52.084;5.412;2023-10-08T14:32:17;5.93;;;2.50;;
66189;SDS011;52992;52.084;5.412;2023-10-08T14:34:44;3.97;;;2.40;;
66189;SDS011;52992;52.084;5.412;2023-10-08T14:37:14;5.30;;;3.10;;
66189;SDS011;52992;52.084;5.412;2023-10-08T14:40:00;6.83;;;2.53;;
66189;SDS011;52992;52.084;5.412;2023-10-08T14:42:46;3.80;;;2.70;;
66189;SDS011;52992;52.084;5.412;2023-10-08T14:45:26;4.70;;;2.57;;
66189;SDS011;52992;52.084;5.412;2023-10-08T14:47:57;6.87;;;3.57;;
66189;SDS011;52992;52.084;5.412;2023-10-08T14:50:26;7.00;;;3.07;;
66189;SDS011;52992;52.084;5.412;2023-10-08T14:52:54;7.93;;;3.93;;
66189;SDS011;52992;52.084;5.412;2023-10-08T14:55:22;3.53;;;3.00;;
66189;SDS011;52992;52.084;5.412;2023-10-08T14:57:49;5.03;;;3.47;;
66189;SDS011;52992;52.084;5.412;2023-10-08T15:00:20;4.73;;;3.50;;
66189;SDS011;52992;52.084;5.412;2023-10-08T15:02:52;4.90;;;3.43;;
66189;SDS011;52992;52.084;5.412;2023-10-08T15:05:22;5.47;;;3.60;;
66189;SDS011;52992;52.084;5.412;2023-10-08T15:07:50;6.17;;;4.00;;
66189;SDS011;52992;52.084;5.412;2023-10-08T15:10:18;7.20;;;3.97;;
66189;SDS011;52992;52.084;5.412;2023-10-08T15:12:45;6.23;;;4.00;;
66189;SDS011;52992;52.084;5.412;2023-10-08T15:15:13;7.00;;;4.97;;
66189;SDS011;52992;52.084;5.412;2023-10-08T15:17:41;6.53;;;4.37;;
66189;SDS011;52992;52.084;5.412;2023-10-08T15:20:13;6.93;;;4.00;;
66189;SDS011;52992;52.084;5.412;2023-10-08T15:22:44;7.20;;;4.27;;
66189;SDS011;52992;52.084;5.412;2023-10-08T15:25:12;7.93;;;4.30;;